createdAt,value
2019-03-12T00:01:09.104Z,1.90
2019-03-12T00:03:37.028Z,2.15
2019-03-12T00:06:05.042Z,1.80
2019-03-12T00:08:32.733Z,1.42
2019-03-12T00:11:01.563Z,1.57
2019-03-12T00:13:29.267Z,1.92
2019-03-12T00:15:56.931Z,2.17
2019-03-12T00:18:24.569Z,2.40
2019-03-12T00:20:52.522Z,2.25
2019-03-12T00:23:21.624Z,2.25
2019-03-12T00:25:49.260Z,2.62
2019-03-12T00:28:17.058Z,2.33
2019-03-12T00:30:44.688Z,2.80
2019-03-12T00:33:12.492Z,2.27
2019-03-12T00:35:40.283Z,2.40
2019-03-12T00:38:08.040Z,2.45
2019-03-12T00:40:35.762Z,2.62
2019-03-12T00:43:03.402Z,2.40
2019-03-12T00:45:31.106Z,2.27
2019-03-12T00:47:58.928Z,1.98
2019-03-12T00:50:26.798Z,2.40
2019-03-12T00:52:55.408Z,2.62
2019-03-12T00:55:23.181Z,2.50
2019-03-12T00:57:50.922Z,2.80
2019-03-12T01:00:18.801Z,2.65
2019-03-12T01:02:47.302Z,2.52
2019-03-12T01:05:17.509Z,2.60
2019-03-12T01:07:45.176Z,2.70
2019-03-12T01:10:13.509Z,2.87
2019-03-12T01:12:42.306Z,2.25
2019-03-12T01:15:10.532Z,3.00
2019-03-12T01:17:38.595Z,3.15
2019-03-12T01:20:08.298Z,3.50
2019-03-12T01:22:36.056Z,3.45
2019-03-12T01:25:04.278Z,2.45
2019-03-12T01:27:32.098Z,2.60
2019-03-12T01:29:59.605Z,2.72
2019-03-12T01:32:27.265Z,2.70
2019-03-12T01:34:55.158Z,3.37
2019-03-12T01:37:22.764Z,3.20
2019-03-12T01:39:50.359Z,3.12
2019-03-12T01:42:18.084Z,2.80
2019-03-12T01:44:45.837Z,3.33
2019-03-12T01:47:13.543Z,3.37
2019-03-12T01:49:41.211Z,3.20
2019-03-12T01:52:08.863Z,3.40
2019-03-12T01:54:36.506Z,3.40
2019-03-12T01:57:04.466Z,3.58
2019-03-12T01:59:32.393Z,3.55
2019-03-12T02:01:59.999Z,4.10
2019-03-12T02:04:28.126Z,3.35
2019-03-12T02:06:57.507Z,3.22
2019-03-12T02:09:25.402Z,3.58
2019-03-12T02:11:53.141Z,2.87
2019-03-12T02:14:28.129Z,3.25
2019-03-12T02:16:55.843Z,3.10
2019-03-12T02:19:24.426Z,3.75
2019-03-12T02:21:52.103Z,2.80
2019-03-12T02:24:19.796Z,3.45
2019-03-12T02:26:47.408Z,3.40
2019-03-12T02:29:15.029Z,3.25
2019-03-12T02:31:42.767Z,3.72
2019-03-12T02:34:10.488Z,3.33
2019-03-12T02:36:38.126Z,3.20
2019-03-12T02:39:05.922Z,3.20
2019-03-12T02:41:35.358Z,3.20
2019-03-12T02:44:03.051Z,3.22
2019-03-12T02:46:30.970Z,3.20
2019-03-12T02:48:58.706Z,3.33
2019-03-12T02:51:26.451Z,3.02
2019-03-12T02:53:54.173Z,3.25
2019-03-12T02:56:21.963Z,2.90
2019-03-12T02:58:49.626Z,2.87
2019-03-12T03:01:17.289Z,2.80
2019-03-12T03:03:46.027Z,2.72
2019-03-12T03:06:24.666Z,2.70
2019-03-12T03:08:52.266Z,2.40
2019-03-12T03:11:19.968Z,2.60
2019-03-12T03:13:48.957Z,2.27
2019-03-12T03:16:16.766Z,2.27
2019-03-12T03:18:44.452Z,2.12
2019-03-12T03:21:12.200Z,2.40
2019-03-12T03:23:40.188Z,2.40
2019-03-12T03:26:07.853Z,2.08
2019-03-12T03:28:35.716Z,2.25
2019-03-12T03:31:03.703Z,2.40
2019-03-12T03:33:31.438Z,2.27
2019-03-12T03:35:59.233Z,2.42
2019-03-12T03:38:26.825Z,2.33
2019-03-12T03:40:54.472Z,2.25
2019-03-12T03:43:22.128Z,2.27
2019-03-12T03:45:49.663Z,2.12
2019-03-12T03:48:17.378Z,2.12
2019-03-12T03:50:45.111Z,2.00
2019-03-12T03:53:12.743Z,1.92
2019-03-12T03:55:40.476Z,1.92
2019-03-12T03:58:08.280Z,2.45
2019-03-12T04:00:35.928Z,2.58
2019-03-12T04:03:03.514Z,1.85
2019-03-12T04:05:31.491Z,2.60
2019-03-12T04:07:59.458Z,2.10
2019-03-12T04:10:28.197Z,2.47
2019-03-12T04:12:56.153Z,1.95
2019-03-12T04:15:23.922Z,2.47
2019-03-12T04:17:51.607Z,2.30
2019-03-12T04:20:19.447Z,2.17
2019-03-12T04:22:47.106Z,2.30
2019-03-12T04:25:14.752Z,2.40
2019-03-12T04:27:43.517Z,2.27
2019-03-12T04:30:11.975Z,2.40
2019-03-12T04:32:39.700Z,2.02
2019-03-12T04:35:08.807Z,2.40
2019-03-12T04:37:36.418Z,2.42
2019-03-12T04:40:48.196Z,2.10
2019-03-12T04:43:15.770Z,2.50
2019-03-12T04:45:44.355Z,2.30
2019-03-12T04:48:12.075Z,2.20
2019-03-12T04:50:39.864Z,2.17
2019-03-12T04:53:07.447Z,2.90
2019-03-12T04:55:35.202Z,2.87
2019-03-12T04:58:02.898Z,2.30
2019-03-12T05:00:30.436Z,2.50
2019-03-12T05:02:58.068Z,2.52
2019-03-12T05:05:25.657Z,2.87
2019-03-12T05:07:53.262Z,2.42
2019-03-12T05:10:21.577Z,2.65
2019-03-12T05:12:49.275Z,2.80
2019-03-12T05:15:16.999Z,2.98
2019-03-12T05:17:44.861Z,2.58
2019-03-12T05:20:13.397Z,3.10
2019-03-12T05:22:41.130Z,3.00
2019-03-12T05:25:10.017Z,3.02
2019-03-12T05:27:37.810Z,2.87
2019-03-12T05:30:07.906Z,2.80
2019-03-12T05:32:35.677Z,2.52
2019-03-12T05:35:03.698Z,2.83
2019-03-12T05:37:41.470Z,3.10
2019-03-12T05:40:09.535Z,4.40
2019-03-12T05:42:37.559Z,3.92
2019-03-12T05:45:05.508Z,3.75
2019-03-12T05:47:34.251Z,3.58
2019-03-12T05:50:01.836Z,3.55
2019-03-12T05:52:29.441Z,3.70
2019-03-12T05:54:57.091Z,3.75
2019-03-12T05:57:24.746Z,3.62
2019-03-12T05:59:52.388Z,2.83
2019-03-12T06:02:20.191Z,2.67
2019-03-12T06:04:47.922Z,3.45
2019-03-12T06:07:15.540Z,3.37
2019-03-12T06:09:44.208Z,3.52
2019-03-12T06:12:12.235Z,3.52
2019-03-12T06:14:40.119Z,3.20
2019-03-12T06:17:09.126Z,3.00
2019-03-12T06:19:36.787Z,3.37
2019-03-12T06:22:04.550Z,2.67
2019-03-12T06:24:32.226Z,2.95
2019-03-12T06:26:59.840Z,2.70
2019-03-12T06:29:27.743Z,3.42
2019-03-12T06:32:30.428Z,3.20
2019-03-12T06:35:17.639Z,3.20
2019-03-12T06:38:05.114Z,3.15
2019-03-12T06:40:38.501Z,3.45
2019-03-12T06:43:20.064Z,3.17
2019-03-12T06:46:22.570Z,2.80
2019-03-12T06:49:04.005Z,2.98
2019-03-12T06:51:51.190Z,2.75
2019-03-12T06:54:26.210Z,2.52
2019-03-12T06:57:13.466Z,3.25
2019-03-12T06:59:51.346Z,2.40
2019-03-12T07:02:38.481Z,3.05
2019-03-12T07:05:31.886Z,2.33
2019-03-12T07:08:07.773Z,2.60
2019-03-12T07:10:45.358Z,3.30
2019-03-12T07:13:32.527Z,2.58
2019-03-12T07:16:11.942Z,2.37
2019-03-12T07:18:54.605Z,2.67
2019-03-12T07:21:40.680Z,2.40
2019-03-12T07:24:26.917Z,2.45
2019-03-12T07:27:12.845Z,2.33
2019-03-12T07:30:07.115Z,2.55
2019-03-12T07:33:03.417Z,2.60
2019-03-12T07:35:45.252Z,2.30
2019-03-12T07:38:18.643Z,2.22
2019-03-12T07:41:26.550Z,2.33
2019-03-12T07:43:56.154Z,2.47
2019-03-12T07:46:40.061Z,2.22
2019-03-12T07:49:43.059Z,2.50
2019-03-12T07:52:20.110Z,2.10
2019-03-12T07:55:19.549Z,2.65
2019-03-12T07:58:06.616Z,2.55
2019-03-12T08:00:53.568Z,2.47
2019-03-12T08:03:40.783Z,2.70
2019-03-12T08:06:20.813Z,2.60
2019-03-12T08:09:17.177Z,2.80
2019-03-12T08:12:16.361Z,2.65
2019-03-12T08:14:57.559Z,2.27
2019-03-12T08:17:50.994Z,2.83
2019-03-12T08:20:44.178Z,2.35
2019-03-12T08:23:18.049Z,2.80
2019-03-12T08:25:55.351Z,2.90
2019-03-12T08:28:28.690Z,3.25
2019-03-12T08:31:12.720Z,2.40
2019-03-12T08:34:04.483Z,2.67
2019-03-12T08:36:47.058Z,2.47
2019-03-12T08:39:31.349Z,2.67
2019-03-12T08:42:12.525Z,2.85
2019-03-12T08:44:47.968Z,3.55
2019-03-12T08:47:41.588Z,2.58
2019-03-12T08:50:30.611Z,2.30
2019-03-12T08:53:17.853Z,2.50
2019-03-12T08:56:03.882Z,2.58
2019-03-12T08:59:03.265Z,2.70
2019-03-12T09:01:56.613Z,3.20
2019-03-12T09:04:43.929Z,2.30
2019-03-12T09:07:31.260Z,2.47
2019-03-12T09:10:24.678Z,2.70
2019-03-12T09:13:24.253Z,2.33
2019-03-12T09:16:03.898Z,2.60
2019-03-12T09:18:52.124Z,2.92
2019-03-12T09:21:42.501Z,2.47
2019-03-12T09:24:35.801Z,2.77
2019-03-12T09:27:35.402Z,2.80
2019-03-12T09:30:13.062Z,2.60
2019-03-12T09:33:04.313Z,3.35
2019-03-12T09:35:51.519Z,2.65
2019-03-12T09:38:38.815Z,2.85
2019-03-12T09:41:18.748Z,2.70
2019-03-12T09:44:02.246Z,3.08
2019-03-12T09:46:58.571Z,3.80
2019-03-12T09:49:55.094Z,2.58
2019-03-12T09:52:48.029Z,2.80
2019-03-12T09:55:41.225Z,2.47
2019-03-12T09:58:28.374Z,2.62
2019-03-12T10:01:10.088Z,2.70
2019-03-12T10:03:50.299Z,2.47
2019-03-12T10:06:36.273Z,2.30
2019-03-12T10:09:33.531Z,2.30
2019-03-12T10:12:09.565Z,2.15
2019-03-12T10:14:55.187Z,2.27
2019-03-12T10:17:41.383Z,2.30
2019-03-12T10:20:27.359Z,2.60
2019-03-12T10:23:26.620Z,2.42
2019-03-12T10:26:03.331Z,2.10
2019-03-12T10:28:49.474Z,2.72
2019-03-12T10:31:35.515Z,2.40
2019-03-12T10:34:29.497Z,2.47
2019-03-12T10:37:14.011Z,2.22
2019-03-12T10:40:06.341Z,2.10
2019-03-12T10:42:58.965Z,2.67
2019-03-12T10:45:52.357Z,2.15
2019-03-12T10:48:20.195Z,2.20
2019-03-12T10:50:48.053Z,2.40
2019-03-12T10:53:16.059Z,1.77
2019-03-12T10:55:43.695Z,2.42
2019-03-12T10:58:11.395Z,1.80
2019-03-12T11:00:39.507Z,2.37
2019-03-12T11:03:07.231Z,2.05
2019-03-12T11:05:45.221Z,2.25
2019-03-12T11:08:06.806Z,1.92
2019-03-12T11:10:34.907Z,2.02
2019-03-12T11:13:03.694Z,1.90
2019-03-12T11:15:31.453Z,1.82
2019-03-12T11:17:59.209Z,1.92
2019-03-12T11:20:27.061Z,2.22
2019-03-12T11:22:55.053Z,2.22
2019-03-12T11:25:27.712Z,2.10
2019-03-12T11:27:54.821Z,1.92
2019-03-12T11:30:22.519Z,1.90
2019-03-12T11:32:50.254Z,2.12
2019-03-12T11:35:18.447Z,2.25
2019-03-12T11:37:46.978Z,1.87
2019-03-12T11:40:16.866Z,1.80
2019-03-12T11:42:45.067Z,2.20
2019-03-12T11:45:16.941Z,2.27
2019-03-12T11:47:44.003Z,1.90
2019-03-12T11:50:16.589Z,2.08
2019-03-12T11:52:52.305Z,2.02
2019-03-12T11:55:14.915Z,2.02
2019-03-12T11:57:43.107Z,2.33
2019-03-12T12:00:19.087Z,1.50
2019-03-12T12:02:44.115Z,2.08
2019-03-12T12:05:11.900Z,1.80
2019-03-12T12:07:42.549Z,1.98
2019-03-12T12:10:11.841Z,2.25
2019-03-12T12:12:40.243Z,2.02
2019-03-12T12:15:09.552Z,1.90
2019-03-12T12:17:37.820Z,1.80
2019-03-12T12:20:06.019Z,1.70
2019-03-12T12:22:33.756Z,2.08
2019-03-12T12:25:01.663Z,1.90
2019-03-12T12:27:30.523Z,2.40
2019-03-12T12:29:58.475Z,1.80
2019-03-12T12:32:26.427Z,2.45
2019-03-12T12:34:54.129Z,2.22
2019-03-12T12:37:21.851Z,2.20
2019-03-12T12:39:49.629Z,2.05
2019-03-12T12:42:17.335Z,1.60
2019-03-12T12:44:44.975Z,2.45
2019-03-12T12:47:12.734Z,1.75
2019-03-12T12:49:40.521Z,1.75
2019-03-12T12:52:08.488Z,1.77
2019-03-12T12:54:36.457Z,1.82
2019-03-12T12:57:04.351Z,1.70
2019-03-12T12:59:32.188Z,1.85
2019-03-12T13:02:00.122Z,1.85
2019-03-12T13:04:27.882Z,1.72
2019-03-12T13:06:58.879Z,2.10
2019-03-12T13:09:26.766Z,1.75
2019-03-12T13:11:54.879Z,1.80
2019-03-12T13:14:22.567Z,1.55
2019-03-12T13:16:50.951Z,1.70
2019-03-12T13:19:18.677Z,1.50
2019-03-12T13:21:46.423Z,2.08
2019-03-12T13:24:14.687Z,1.27
2019-03-12T13:26:42.732Z,1.62
2019-03-12T13:29:10.445Z,1.70
2019-03-12T13:31:38.303Z,1.80
2019-03-12T13:34:06.291Z,1.80
2019-03-12T13:36:34.307Z,1.82
2019-03-12T13:39:02.761Z,2.10
2019-03-12T13:41:32.565Z,1.75
2019-03-12T13:44:00.423Z,1.70
2019-03-12T13:46:28.179Z,1.90
2019-03-12T13:48:57.180Z,1.75
2019-03-12T13:51:24.911Z,1.87
2019-03-12T13:53:52.712Z,1.72
2019-03-12T13:56:21.449Z,1.62
2019-03-12T13:58:49.035Z,1.92
2019-03-12T14:01:16.723Z,1.65
2019-03-12T14:03:44.528Z,1.55
2019-03-12T14:06:12.303Z,1.60
2019-03-12T14:08:40.107Z,1.80
2019-03-12T14:11:07.889Z,1.40
2019-03-12T14:13:36.070Z,1.57
2019-03-12T14:16:05.626Z,1.57
2019-03-12T14:18:33.489Z,1.40
2019-03-12T14:21:07.450Z,1.55
2019-03-12T14:23:41.262Z,1.57
2019-03-12T14:26:08.906Z,1.47
2019-03-12T14:28:36.757Z,1.37
2019-03-12T14:31:05.054Z,1.62
2019-03-12T14:33:32.811Z,1.72
2019-03-12T14:36:00.572Z,1.70
2019-03-12T14:38:30.058Z,1.35
2019-03-12T14:40:57.834Z,1.37
2019-03-12T14:43:26.772Z,1.17
2019-03-12T14:45:54.705Z,1.20
2019-03-12T14:48:44.706Z,1.30
2019-03-12T14:51:32.160Z,1.17
2019-03-12T14:54:00.275Z,1.02
2019-03-12T14:56:31.199Z,1.15
2019-03-12T14:58:59.942Z,1.10
2019-03-12T15:01:27.731Z,1.70
2019-03-12T15:03:55.454Z,1.25
2019-03-12T15:06:23.683Z,1.42
2019-03-12T15:08:51.719Z,1.40
2019-03-12T15:11:19.726Z,1.40
2019-03-12T15:13:47.874Z,0.93
2019-03-12T15:16:16.616Z,1.00
2019-03-12T15:18:44.494Z,1.30
2019-03-12T15:21:12.239Z,1.05
2019-03-12T15:23:40.381Z,1.20
2019-03-12T15:26:08.206Z,1.60
2019-03-12T15:28:36.039Z,1.10
2019-03-12T15:31:03.763Z,1.50
2019-03-12T15:33:31.535Z,1.30
2019-03-12T15:36:00.246Z,1.20
2019-03-12T15:38:27.852Z,1.07
2019-03-12T15:40:55.662Z,0.93
2019-03-12T15:43:24.402Z,1.15
2019-03-12T15:45:52.103Z,1.15
2019-03-12T15:48:21.540Z,1.12
2019-03-12T15:50:49.683Z,1.50
2019-03-12T15:53:17.436Z,1.30
2019-03-12T15:55:45.083Z,1.20
2019-03-12T15:58:12.678Z,0.90
2019-03-12T16:00:40.284Z,1.20
2019-03-12T16:03:08.195Z,1.50
2019-03-12T16:05:35.918Z,1.40
2019-03-12T16:08:03.574Z,1.07
2019-03-12T16:10:31.220Z,1.32
2019-03-12T16:12:59.310Z,1.10
2019-03-12T16:15:27.099Z,1.07
2019-03-12T16:17:54.869Z,0.82
2019-03-12T16:20:22.699Z,1.17
2019-03-12T16:22:50.593Z,1.32
2019-03-12T16:25:18.276Z,1.20
2019-03-12T16:27:46.060Z,1.10
2019-03-12T16:30:13.903Z,0.95
2019-03-12T16:32:42.089Z,1.42
2019-03-12T16:35:11.130Z,1.40
2019-03-12T16:37:40.001Z,0.98
2019-03-12T16:40:13.922Z,1.42
2019-03-12T16:42:42.018Z,1.32
2019-03-12T16:45:10.451Z,1.98
2019-03-12T16:47:38.131Z,1.00
2019-03-12T16:50:05.974Z,1.27
2019-03-12T16:52:33.710Z,1.10
2019-03-12T16:55:01.513Z,1.72
2019-03-12T16:57:29.908Z,1.30
2019-03-12T16:59:57.645Z,1.40
2019-03-12T17:02:25.535Z,1.40
2019-03-12T17:04:53.498Z,1.55
2019-03-12T17:07:21.173Z,1.35
2019-03-12T17:09:48.906Z,1.12
2019-03-12T17:12:18.733Z,1.20
2019-03-12T17:14:46.526Z,1.02
2019-03-12T17:17:14.338Z,1.10
2019-03-12T17:19:42.148Z,1.20
2019-03-12T17:22:09.826Z,1.25
2019-03-12T17:24:37.655Z,1.30
2019-03-12T17:27:05.641Z,1.40
2019-03-12T17:29:33.551Z,1.37
2019-03-12T17:32:02.140Z,0.80
2019-03-12T17:34:35.894Z,0.98
2019-03-12T17:37:01.069Z,1.00
2019-03-12T17:39:28.834Z,0.88
2019-03-12T17:41:59.848Z,1.00
2019-03-12T17:44:27.905Z,1.00
2019-03-12T17:46:56.478Z,1.27
2019-03-12T17:49:25.286Z,0.98
2019-03-12T17:51:53.257Z,1.30
2019-03-12T17:54:21.245Z,1.17
2019-03-12T17:56:49.151Z,0.82
2019-03-12T17:59:17.919Z,0.85
2019-03-12T18:01:45.651Z,1.10
2019-03-12T18:04:13.718Z,1.02
2019-03-12T18:06:41.489Z,1.00
2019-03-12T18:09:09.397Z,1.50
2019-03-12T18:11:39.240Z,1.27
2019-03-12T18:14:07.215Z,1.65
2019-03-12T18:16:40.987Z,0.90
2019-03-12T18:19:05.179Z,1.00
2019-03-12T18:21:33.105Z,0.88
2019-03-12T18:24:01.174Z,1.10
2019-03-12T18:26:28.998Z,0.62
2019-03-12T18:28:59.188Z,0.70
2019-03-12T18:31:27.073Z,0.80
2019-03-12T18:33:55.682Z,1.00
2019-03-12T18:36:25.774Z,1.07
2019-03-12T18:38:53.741Z,1.30
2019-03-12T18:41:26.257Z,1.10
2019-03-12T18:43:54.248Z,1.22
2019-03-12T18:46:22.511Z,0.88
2019-03-12T18:48:50.803Z,0.90
2019-03-12T18:51:18.599Z,1.02
2019-03-12T18:53:46.455Z,1.02
2019-03-12T18:56:26.217Z,1.05
2019-03-12T18:58:59.392Z,0.62
2019-03-12T19:01:27.420Z,1.10
2019-03-12T19:03:55.268Z,0.93
2019-03-12T19:06:23.187Z,1.02
2019-03-12T19:08:51.320Z,1.10
2019-03-12T19:11:19.331Z,0.80
2019-03-12T19:13:47.075Z,1.10
2019-03-12T19:16:15.006Z,1.40
2019-03-12T19:18:42.861Z,1.57
2019-03-12T19:21:13.642Z,1.02
2019-03-12T19:23:41.554Z,0.88
2019-03-12T19:26:11.608Z,1.10
2019-03-12T19:28:40.390Z,1.07
2019-03-12T19:31:22.523Z,1.10
2019-03-12T19:33:51.186Z,1.25
2019-03-12T19:36:19.161Z,1.02
2019-03-12T19:38:47.172Z,1.20
2019-03-12T19:41:17.134Z,1.10
2019-03-12T19:43:47.026Z,1.10
2019-03-12T19:46:14.875Z,1.12
2019-03-12T19:48:42.931Z,1.10
2019-03-12T19:51:12.328Z,1.10
2019-03-12T19:53:40.370Z,1.10
2019-03-12T19:56:08.503Z,1.15
2019-03-12T19:58:36.582Z,0.98
2019-03-12T20:01:06.460Z,1.00
2019-03-12T20:03:34.148Z,1.20
2019-03-12T20:06:02.002Z,1.10
2019-03-12T20:08:31.008Z,1.20
2019-03-12T20:11:46.775Z,1.10
2019-03-12T20:14:44.879Z,0.90
2019-03-12T20:17:41.828Z,1.25
2019-03-12T20:21:06.280Z,1.30
2019-03-12T20:24:13.644Z,1.15
2019-03-12T20:27:25.385Z,1.87
2019-03-12T20:30:43.287Z,1.15
2019-03-12T20:34:11.524Z,1.22
2019-03-12T20:37:16.341Z,1.07
2019-03-12T20:40:30.951Z,1.10
2019-03-12T20:43:52.070Z,1.12
2019-03-12T20:46:57.712Z,1.30
2019-03-12T20:50:03.166Z,1.20
2019-03-12T20:53:06.313Z,1.00
2019-03-12T20:56:22.135Z,1.17
2019-03-12T20:59:56.480Z,1.20
2019-03-12T21:03:15.324Z,1.22
2019-03-12T21:06:18.819Z,1.45
2019-03-12T21:09:33.995Z,1.10
2019-03-12T21:12:56.867Z,1.00
2019-03-12T21:15:55.397Z,1.10
2019-03-12T21:19:26.736Z,1.12
2019-03-12T21:22:22.855Z,1.42
2019-03-12T21:25:09.863Z,1.00
2019-03-12T21:28:09.321Z,1.27
2019-03-12T21:30:37.223Z,1.10
2019-03-12T21:33:14.782Z,1.45
2019-03-12T21:35:35.127Z,1.25
2019-03-12T21:38:03.154Z,1.22
2019-03-12T21:40:31.167Z,1.17
2019-03-12T21:42:59.537Z,1.40
2019-03-12T21:45:27.701Z,1.02
2019-03-12T21:47:59.524Z,1.70
2019-03-12T21:50:30.162Z,1.25
2019-03-12T21:52:58.325Z,1.10
2019-03-12T21:55:26.197Z,1.40
2019-03-12T21:57:54.132Z,1.22
2019-03-12T22:00:22.331Z,1.40
2019-03-12T22:02:50.458Z,1.40
2019-03-12T22:05:18.641Z,1.47
2019-03-12T22:07:46.581Z,1.47
2019-03-12T22:10:15.552Z,1.40
2019-03-12T22:12:43.666Z,1.30
2019-03-12T22:15:11.648Z,1.55
2019-03-12T22:17:39.574Z,1.40
2019-03-12T22:20:08.786Z,1.50
2019-03-12T22:22:44.239Z,1.17
2019-03-12T22:25:12.416Z,1.50
2019-03-12T22:27:40.894Z,1.15
2019-03-12T22:30:12.166Z,1.40
2019-03-12T22:32:41.165Z,1.27
2019-03-12T22:35:09.497Z,1.35
2019-03-12T22:37:37.520Z,1.30
2019-03-12T22:40:09.874Z,1.40
2019-03-12T22:42:37.722Z,1.45
2019-03-12T22:45:06.571Z,1.35
2019-03-12T22:47:36.080Z,1.50
2019-03-12T22:50:04.354Z,1.40
2019-03-12T22:52:32.298Z,1.27
2019-03-12T22:55:03.392Z,1.45
2019-03-12T22:57:30.023Z,1.32
2019-03-12T23:00:16.682Z,1.30
2019-03-12T23:03:03.302Z,1.37
2019-03-12T23:05:49.781Z,1.30
2019-03-12T23:08:36.191Z,1.25
2019-03-12T23:11:06.044Z,1.20
2019-03-12T23:13:34.289Z,1.32
2019-03-12T23:16:07.019Z,1.37
2019-03-12T23:18:46.534Z,1.20
2019-03-12T23:21:14.556Z,1.45
2019-03-12T23:23:42.366Z,1.30
2019-03-12T23:26:10.299Z,1.55
2019-03-12T23:28:38.601Z,1.35
2019-03-12T23:31:06.663Z,1.30
2019-03-12T23:33:34.522Z,1.10
2019-03-12T23:36:02.329Z,1.15
2019-03-12T23:38:30.448Z,1.30
2019-03-12T23:40:58.628Z,1.37
2019-03-12T23:43:26.302Z,0.78
2019-03-12T23:45:57.804Z,0.90
2019-03-12T23:48:29.008Z,1.07
2019-03-12T23:50:56.709Z,0.70
2019-03-12T23:53:28.006Z,0.45
2019-03-12T23:55:56.064Z,0.50
2019-03-12T23:58:29.648Z,0.40
